sensor_id;sensor_type;location;lat;lon;timestamp;P1;durP1;ratioP1;P2;durP2;ratioP2
1376;SDS011;682;52.502;13.488;2023-06-22T00:01:19;14.27;;;13.07;;
1376;SDS011;682;52.502;13.488;2023-06-22T00:03:47;13.30;;;12.30;;
1376;SDS011;682;52.502;13.488;2023-06-22T00:06:15;14.17;;;12.33;;
1376;SDS011;682;52.502;13.488;2023-06-22T00:08:42;13.90;;;12.80;;
1376;SDS011;682;52.502;13.488;2023-06-22T00:11:10;13.87;;;12.77;;
1376;SDS011;682;52.502;13.488;2023-06-22T00:13:37;13.10;;;12.00;;
1376;SDS011;682;52.502;13.488;2023-06-22T00:16:04;13.60;;;12.43;;
1376;SDS011;682;52.502;13.488;2023-06-22T00:18:31;13.50;;;12.30;;
1376;SDS011;682;52.502;13.488;2023-06-22T00:20:58;13.43;;;12.40;;
1376;SDS011;682;52.502;13.488;2023-06-22T00:23:25;14.07;;;12.90;;
1376;SDS011;682;52.502;13.488;2023-06-22T00:25:52;14.03;;;12.97;;
1376;SDS011;682;52.502;13.488;2023-06-22T00:28:21;15.47;;;14.10;;
1376;SDS011;682;52.502;13.488;2023-06-22T00:30:48;13.50;;;12.47;;
1376;SDS011;682;52.502;13.488;2023-06-22T00:33:15;13.77;;;12.67;;
1376;SDS011;682;52.502;13.488;2023-06-22T00:35:42;14.03;;;12.97;;
1376;SDS011;682;52.502;13.488;2023-06-22T00:38:09;13.30;;;12.10;;
1376;SDS011;682;52.502;13.488;2023-06-22T00:40:36;14.60;;;13.40;;
1376;SDS011;682;52.502;13.488;2023-06-22T00:43:03;14.33;;;12.90;;
1376;SDS011;682;52.502;13.488;2023-06-22T00:45:33;15.63;;;14.27;;
1376;SDS011;682;52.502;13.488;2023-06-22T00:48:00;15.40;;;14.00;;
1376;SDS011;682;52.502;13.488;2023-06-22T00:50:28;14.87;;;13.67;;
1376;SDS011;682;52.502;13.488;2023-06-22T00:52:59;14.70;;;13.50;;
1376;SDS011;682;52.502;13.488;2023-06-22T00:55:29;13.63;;;12.53;;
1376;SDS011;682;52.502;13.488;2023-06-22T00:57:56;14.13;;;13.03;;
1376;SDS011;682;52.502;13.488;2023-06-22T01:00:23;14.50;;;13.30;;
1376;SDS011;682;52.502;13.488;2023-06-22T01:02:55;15.20;;;14.00;;
1376;SDS011;682;52.502;13.488;2023-06-22T01:05:23;14.93;;;13.80;;
1376;SDS011;682;52.502;13.488;2023-06-22T01:08:02;14.63;;;13.47;;
1376;SDS011;682;52.502;13.488;2023-06-22T01:10:35;16.10;;;15.00;;
1376;SDS011;682;52.502;13.488;2023-06-22T01:13:13;14.30;;;13.20;;
1376;SDS011;682;52.502;13.488;2023-06-22T01:15:48;15.30;;;13.90;;
1376;SDS011;682;52.502;13.488;2023-06-22T01:18:20;16.60;;;15.20;;
1376;SDS011;682;52.502;13.488;2023-06-22T01:20:51;16.27;;;14.87;;
1376;SDS011;682;52.502;13.488;2023-06-22T01:23:22;15.53;;;14.23;;
1376;SDS011;682;52.502;13.488;2023-06-22T01:25:57;14.90;;;13.40;;
1376;SDS011;682;52.502;13.488;2023-06-22T01:28:39;15.60;;;14.40;;
1376;SDS011;682;52.502;13.488;2023-06-22T01:31:12;15.87;;;14.67;;
1376;SDS011;682;52.502;13.488;2023-06-22T01:33:43;16.00;;;14.70;;
1376;SDS011;682;52.502;13.488;2023-06-22T01:36:11;16.77;;;15.47;;
1376;SDS011;682;52.502;13.488;2023-06-22T01:38:40;16.10;;;14.77;;
1376;SDS011;682;52.502;13.488;2023-06-22T01:41:09;15.60;;;14.30;;
1376;SDS011;682;52.502;13.488;2023-06-22T01:43:39;17.23;;;15.67;;
1376;SDS011;682;52.502;13.488;2023-06-22T01:46:07;17.33;;;15.73;;
1376;SDS011;682;52.502;13.488;2023-06-22T01:48:35;18.00;;;16.50;;
1376;SDS011;682;52.502;13.488;2023-06-22T01:51:02;17.10;;;15.60;;
1376;SDS011;682;52.502;13.488;2023-06-22T01:53:29;17.80;;;16.30;;
1376;SDS011;682;52.502;13.488;2023-06-22T01:55:59;18.00;;;16.40;;
1376;SDS011;682;52.502;13.488;2023-06-22T01:58:27;18.90;;;17.00;;
1376;SDS011;682;52.502;13.488;2023-06-22T02:00:58;18.67;;;17.17;;
1376;SDS011;682;52.502;13.488;2023-06-22T02:03:30;16.80;;;15.50;;
1376;SDS011;682;52.502;13.488;2023-06-22T02:06:03;17.20;;;15.90;;
1376;SDS011;682;52.502;13.488;2023-06-22T02:08:35;17.37;;;15.97;;
1376;SDS011;682;52.502;13.488;2023-06-22T02:11:06;17.83;;;16.23;;
1376;SDS011;682;52.502;13.488;2023-06-22T02:13:35;16.87;;;15.47;;
1376;SDS011;682;52.502;13.488;2023-06-22T02:16:10;18.13;;;16.63;;
1376;SDS011;682;52.502;13.488;2023-06-22T02:18:45;17.93;;;16.63;;
1376;SDS011;682;52.502;13.488;2023-06-22T02:21:12;18.77;;;17.27;;
1376;SDS011;682;52.502;13.488;2023-06-22T02:23:39;20.13;;;18.37;;
1376;SDS011;682;52.502;13.488;2023-06-22T02:26:06;18.40;;;17.00;;
1376;SDS011;682;52.502;13.488;2023-06-22T02:28:34;20.23;;;18.53;;
1376;SDS011;682;52.502;13.488;2023-06-22T02:31:01;18.03;;;16.53;;
1376;SDS011;682;52.502;13.488;2023-06-22T02:33:29;20.53;;;18.70;;
1376;SDS011;682;52.502;13.488;2023-06-22T02:35:57;19.37;;;17.87;;
1376;SDS011;682;52.502;13.488;2023-06-22T02:38:24;20.13;;;18.40;;
1376;SDS011;682;52.502;13.488;2023-06-22T02:40:51;19.30;;;17.70;;
1376;SDS011;682;52.502;13.488;2023-06-22T02:43:18;19.43;;;17.73;;
1376;SDS011;682;52.502;13.488;2023-06-22T02:45:45;17.60;;;16.30;;
1376;SDS011;682;52.502;13.488;2023-06-22T02:48:12;20.07;;;18.30;;
1376;SDS011;682;52.502;13.488;2023-06-22T02:50:40;18.80;;;17.20;;
1376;SDS011;682;52.502;13.488;2023-06-22T02:53:07;19.70;;;18.00;;
1376;SDS011;682;52.502;13.488;2023-06-22T02:55:34;20.53;;;18.57;;
1376;SDS011;682;52.502;13.488;2023-06-22T02:58:02;20.80;;;18.90;;
1376;SDS011;682;52.502;13.488;2023-06-22T03:00:30;19.00;;;17.40;;
1376;SDS011;682;52.502;13.488;2023-06-22T03:02:57;19.57;;;17.83;;
1376;SDS011;682;52.502;13.488;2023-06-22T03:05:24;19.50;;;17.90;;
1376;SDS011;682;52.502;13.488;2023-06-22T03:07:53;19.77;;;18.07;;
1376;SDS011;682;52.502;13.488;2023-06-22T03:10:22;19.50;;;17.90;;
1376;SDS011;682;52.502;13.488;2023-06-22T03:12:49;19.00;;;17.40;;
1376;SDS011;682;52.502;13.488;2023-06-22T03:15:16;18.13;;;16.73;;
1376;SDS011;682;52.502;13.488;2023-06-22T03:17:45;17.97;;;16.47;;
1376;SDS011;682;52.502;13.488;2023-06-22T03:20:12;17.87;;;16.10;;
1376;SDS011;682;52.502;13.488;2023-06-22T03:22:39;17.93;;;16.47;;
1376;SDS011;682;52.502;13.488;2023-06-22T03:25:09;17.13;;;15.53;;
1376;SDS011;682;52.502;13.488;2023-06-22T03:27:40;26.50;;;15.70;;
1376;SDS011;682;52.502;13.488;2023-06-22T03:30:10;14.90;;;13.60;;
1376;SDS011;682;52.502;13.488;2023-06-22T03:32:38;14.17;;;12.97;;
1376;SDS011;682;52.502;13.488;2023-06-22T03:35:05;14.33;;;13.10;;
1376;SDS011;682;52.502;13.488;2023-06-22T03:37:33;14.13;;;12.93;;
1376;SDS011;682;52.502;13.488;2023-06-22T03:40:00;15.50;;;13.70;;
1376;SDS011;682;52.502;13.488;2023-06-22T03:42:29;15.50;;;14.10;;
1376;SDS011;682;52.502;13.488;2023-06-22T03:44:56;14.03;;;12.63;;
1376;SDS011;682;52.502;13.488;2023-06-22T03:47:24;13.13;;;12.03;;
1376;SDS011;682;52.502;13.488;2023-06-22T03:49:51;13.07;;;12.07;;
1376;SDS011;682;52.502;13.488;2023-06-22T03:52:20;14.27;;;13.07;;
1376;SDS011;682;52.502;13.488;2023-06-22T03:54:47;13.70;;;12.50;;
1376;SDS011;682;52.502;13.488;2023-06-22T03:57:15;12.37;;;11.37;;
1376;SDS011;682;52.502;13.488;2023-06-22T03:59:45;11.53;;;10.53;;
1376;SDS011;682;52.502;13.488;2023-06-22T04:02:11;12.57;;;11.43;;
1376;SDS011;682;52.502;13.488;2023-06-22T04:04:39;12.80;;;11.70;;
1376;SDS011;682;52.502;13.488;2023-06-22T04:07:06;11.23;;;10.33;;
1376;SDS011;682;52.502;13.488;2023-06-22T04:09:33;11.77;;;10.60;;
1376;SDS011;682;52.502;13.488;2023-06-22T04:12:01;11.13;;;10.20;;
1376;SDS011;682;52.502;13.488;2023-06-22T04:14:28;12.13;;;11.13;;
1376;SDS011;682;52.502;13.488;2023-06-22T04:16:59;12.97;;;11.67;;
1376;SDS011;682;52.502;13.488;2023-06-22T04:19:26;12.53;;;11.33;;
1376;SDS011;682;52.502;13.488;2023-06-22T04:21:53;14.60;;;13.30;;
1376;SDS011;682;52.502;13.488;2023-06-22T04:24:20;13.00;;;11.70;;
1376;SDS011;682;52.502;13.488;2023-06-22T04:26:48;12.60;;;11.60;;
1376;SDS011;682;52.502;13.488;2023-06-22T04:29:20;12.83;;;11.00;;
1376;SDS011;682;52.502;13.488;2023-06-22T04:31:55;12.50;;;11.50;;
1376;SDS011;682;52.502;13.488;2023-06-22T04:34:31;11.93;;;10.93;;
1376;SDS011;682;52.502;13.488;2023-06-22T04:37:00;11.57;;;10.47;;
1376;SDS011;682;52.502;13.488;2023-06-22T04:39:36;11.27;;;10.47;;
1376;SDS011;682;52.502;13.488;2023-06-22T04:42:03;11.93;;;10.70;;
1376;SDS011;682;52.502;13.488;2023-06-22T04:44:33;14.33;;;12.83;;
1376;SDS011;682;52.502;13.488;2023-06-22T04:47:03;10.70;;;9.67;;
1376;SDS011;682;52.502;13.488;2023-06-22T04:49:33;11.53;;;10.37;;
1376;SDS011;682;52.502;13.488;2023-06-22T04:52:05;10.97;;;9.97;;
1376;SDS011;682;52.502;13.488;2023-06-22T04:54:34;11.60;;;10.50;;
1376;SDS011;682;52.502;13.488;2023-06-22T04:57:03;13.37;;;12.17;;
1376;SDS011;682;52.502;13.488;2023-06-22T04:59:36;11.97;;;10.70;;
1376;SDS011;682;52.502;13.488;2023-06-22T05:02:08;13.30;;;12.07;;
1376;SDS011;682;52.502;13.488;2023-06-22T05:04:35;13.07;;;11.83;;
1376;SDS011;682;52.502;13.488;2023-06-22T05:07:04;13.07;;;11.87;;
1376;SDS011;682;52.502;13.488;2023-06-22T05:09:35;12.00;;;11.00;;
1376;SDS011;682;52.502;13.488;2023-06-22T05:12:03;14.10;;;11.63;;
1376;SDS011;682;52.502;13.488;2023-06-22T05:14:31;10.87;;;9.90;;
1376;SDS011;682;52.502;13.488;2023-06-22T05:16:58;12.67;;;11.57;;
1376;SDS011;682;52.502;13.488;2023-06-22T05:19:32;12.47;;;11.37;;
1376;SDS011;682;52.502;13.488;2023-06-22T05:21:59;12.37;;;11.00;;
1376;SDS011;682;52.502;13.488;2023-06-22T05:24:26;13.30;;;10.23;;
1376;SDS011;682;52.502;13.488;2023-06-22T05:26:56;11.40;;;10.37;;
1376;SDS011;682;52.502;13.488;2023-06-22T05:29:22;11.80;;;10.77;;
1376;SDS011;682;52.502;13.488;2023-06-22T05:31:50;10.83;;;9.40;;
1376;SDS011;682;52.502;13.488;2023-06-22T05:34:19;11.23;;;10.33;;
1376;SDS011;682;52.502;13.488;2023-06-22T05:36:48;9.43;;;8.73;;
1376;SDS011;682;52.502;13.488;2023-06-22T05:39:15;10.00;;;9.10;;
1376;SDS011;682;52.502;13.488;2023-06-22T05:41:45;9.57;;;8.57;;
1376;SDS011;682;52.502;13.488;2023-06-22T05:44:14;9.27;;;8.37;;
1376;SDS011;682;52.502;13.488;2023-06-22T05:46:42;11.03;;;8.33;;
1376;SDS011;682;52.502;13.488;2023-06-22T05:49:12;9.67;;;8.83;;
1376;SDS011;682;52.502;13.488;2023-06-22T05:51:41;8.83;;;8.13;;
1376;SDS011;682;52.502;13.488;2023-06-22T05:54:10;8.83;;;8.13;;
1376;SDS011;682;52.502;13.488;2023-06-22T05:56:43;8.00;;;7.30;;
1376;SDS011;682;52.502;13.488;2023-06-22T05:59:10;8.80;;;8.10;;
1376;SDS011;682;52.502;13.488;2023-06-22T06:01:41;9.27;;;8.57;;
1376;SDS011;682;52.502;13.488;2023-06-22T06:04:10;8.10;;;7.40;;
1376;SDS011;682;52.502;13.488;2023-06-22T06:06:37;12.60;;;10.37;;
1376;SDS011;682;52.502;13.488;2023-06-22T06:09:04;8.47;;;7.50;;
1376;SDS011;682;52.502;13.488;2023-06-22T06:11:42;7.73;;;7.13;;
1376;SDS011;682;52.502;13.488;2023-06-22T06:14:12;7.97;;;7.17;;
1376;SDS011;682;52.502;13.488;2023-06-22T06:16:42;9.17;;;7.30;;
1376;SDS011;682;52.502;13.488;2023-06-22T06:19:17;7.80;;;7.20;;
1376;SDS011;682;52.502;13.488;2023-06-22T06:21:44;8.50;;;7.80;;
1376;SDS011;682;52.502;13.488;2023-06-22T06:24:11;7.70;;;7.00;;
1376;SDS011;682;52.502;13.488;2023-06-22T06:26:39;7.33;;;6.73;;
1376;SDS011;682;52.502;13.488;2023-06-22T06:29:08;9.40;;;7.63;;
1376;SDS011;682;52.502;13.488;2023-06-22T06:31:35;7.90;;;7.10;;
1376;SDS011;682;52.502;13.488;2023-06-22T06:34:02;8.93;;;7.60;;
1376;SDS011;682;52.502;13.488;2023-06-22T06:36:29;9.23;;;7.57;;
1376;SDS011;682;52.502;13.488;2023-06-22T06:38:56;9.43;;;8.63;;
1376;SDS011;682;52.502;13.488;2023-06-22T06:41:25;8.53;;;6.50;;
1376;SDS011;682;52.502;13.488;2023-06-22T06:46:55;6.67;;;6.07;;
1376;SDS011;682;52.502;13.488;2023-06-22T06:49:22;7.20;;;6.60;;
1376;SDS011;682;52.502;13.488;2023-06-22T06:51:53;6.43;;;5.93;;
1376;SDS011;682;52.502;13.488;2023-06-22T06:54:22;6.00;;;5.50;;
1376;SDS011;682;52.502;13.488;2023-06-22T06:56:49;6.67;;;6.07;;
1376;SDS011;682;52.502;13.488;2023-06-22T06:59:17;7.73;;;6.20;;
1376;SDS011;682;52.502;13.488;2023-06-22T07:01:45;6.50;;;5.40;;
1376;SDS011;682;52.502;13.488;2023-06-22T07:04:19;5.67;;;5.17;;
1376;SDS011;682;52.502;13.488;2023-06-22T07:06:51;6.60;;;6.00;;
1376;SDS011;682;52.502;13.488;2023-06-22T07:09:19;6.90;;;5.80;;
1376;SDS011;682;52.502;13.488;2023-06-22T07:11:48;6.03;;;4.90;;
1376;SDS011;682;52.502;13.488;2023-06-22T07:14:15;6.03;;;5.53;;
1376;SDS011;682;52.502;13.488;2023-06-22T07:16:45;6.73;;;6.13;;
1376;SDS011;682;52.502;13.488;2023-06-22T07:19:13;5.97;;;5.07;;
1376;SDS011;682;52.502;13.488;2023-06-22T07:21:41;5.30;;;4.80;;
1376;SDS011;682;52.502;13.488;2023-06-22T07:24:09;5.73;;;5.13;;
1376;SDS011;682;52.502;13.488;2023-06-22T07:26:36;5.87;;;5.27;;
1376;SDS011;682;52.502;13.488;2023-06-22T07:29:04;3.70;;;3.40;;
1376;SDS011;682;52.502;13.488;2023-06-22T07:31:34;5.27;;;4.20;;
1376;SDS011;682;52.502;13.488;2023-06-22T07:34:02;5.27;;;4.77;;
1376;SDS011;682;52.502;13.488;2023-06-22T07:36:30;6.97;;;5.63;;
1376;SDS011;682;52.502;13.488;2023-06-22T07:38:58;5.30;;;4.80;;
1376;SDS011;682;52.502;13.488;2023-06-22T07:41:32;6.03;;;4.80;;
1376;SDS011;682;52.502;13.488;2023-06-22T07:44:02;4.23;;;3.83;;
1376;SDS011;682;52.502;13.488;2023-06-22T07:46:30;6.27;;;3.57;;
1376;SDS011;682;52.502;13.488;2023-06-22T07:48:57;4.17;;;3.87;;
1376;SDS011;682;52.502;13.488;2023-06-22T07:51:29;4.80;;;3.80;;
1376;SDS011;682;52.502;13.488;2023-06-22T07:53:56;6.13;;;4.30;;
1376;SDS011;682;52.502;13.488;2023-06-22T07:56:24;4.73;;;3.97;;
1376;SDS011;682;52.502;13.488;2023-06-22T07:58:52;4.90;;;3.73;;
1376;SDS011;682;52.502;13.488;2023-06-22T08:01:23;4.27;;;3.77;;
1376;SDS011;682;52.502;13.488;2023-06-22T08:03:50;5.00;;;3.80;;
1376;SDS011;682;52.502;13.488;2023-06-22T08:06:26;4.97;;;3.30;;
1376;SDS011;682;52.502;13.488;2023-06-22T08:09:00;4.53;;;4.10;;
1376;SDS011;682;52.502;13.488;2023-06-22T08:11:29;5.40;;;3.60;;
1376;SDS011;682;52.502;13.488;2023-06-22T08:13:59;6.47;;;4.10;;
1376;SDS011;682;52.502;13.488;2023-06-22T08:16:26;4.10;;;3.80;;
1376;SDS011;682;52.502;13.488;2023-06-22T08:18:53;4.07;;;3.73;;
1376;SDS011;682;52.502;13.488;2023-06-22T08:21:22;4.53;;;4.03;;
1376;SDS011;682;52.502;13.488;2023-06-22T08:23:53;4.80;;;4.30;;
1376;SDS011;682;52.502;13.488;2023-06-22T08:26:21;5.57;;;4.60;;
1376;SDS011;682;52.502;13.488;2023-06-22T08:28:49;4.50;;;4.10;;
1376;SDS011;682;52.502;13.488;2023-06-22T08:31:17;4.77;;;4.37;;
1376;SDS011;682;52.502;13.488;2023-06-22T08:33:44;5.40;;;4.90;;
1376;SDS011;682;52.502;13.488;2023-06-22T08:36:15;6.10;;;5.23;;
1376;SDS011;682;52.502;13.488;2023-06-22T08:38:42;5.03;;;4.37;;
1376;SDS011;682;52.502;13.488;2023-06-22T08:41:16;4.87;;;4.47;;
1376;SDS011;682;52.502;13.488;2023-06-22T08:43:44;5.10;;;4.70;;
1376;SDS011;682;52.502;13.488;2023-06-22T08:46:11;6.27;;;4.20;;
1376;SDS011;682;52.502;13.488;2023-06-22T08:48:45;4.30;;;3.93;;
1376;SDS011;682;52.502;13.488;2023-06-22T08:51:12;5.37;;;4.90;;
1376;SDS011;682;52.502;13.488;2023-06-22T08:53:40;5.20;;;4.70;;
1376;SDS011;682;52.502;13.488;2023-06-22T08:56:08;4.40;;;4.07;;
1376;SDS011;682;52.502;13.488;2023-06-22T08:58:38;4.60;;;4.20;;
1376;SDS011;682;52.502;13.488;2023-06-22T09:01:07;5.80;;;5.00;;
1376;SDS011;682;52.502;13.488;2023-06-22T09:03:36;5.50;;;5.00;;
1376;SDS011;682;52.502;13.488;2023-06-22T09:06:03;5.10;;;4.70;;
1376;SDS011;682;52.502;13.488;2023-06-22T09:08:30;6.03;;;5.00;;
1376;SDS011;682;52.502;13.488;2023-06-22T09:11:00;4.70;;;4.30;;
1376;SDS011;682;52.502;13.488;2023-06-22T09:13:29;5.13;;;4.67;;
1376;SDS011;682;52.502;13.488;2023-06-22T09:16:06;4.27;;;3.83;;
1376;SDS011;682;52.502;13.488;2023-06-22T09:18:33;5.07;;;4.37;;
1376;SDS011;682;52.502;13.488;2023-06-22T09:21:01;5.23;;;4.73;;
1376;SDS011;682;52.502;13.488;2023-06-22T09:23:34;4.30;;;3.90;;
1376;SDS011;682;52.502;13.488;2023-06-22T09:26:02;5.00;;;4.60;;
1376;SDS011;682;52.502;13.488;2023-06-22T09:28:30;5.27;;;4.83;;
1376;SDS011;682;52.502;13.488;2023-06-22T09:30:58;5.20;;;4.70;;
1376;SDS011;682;52.502;13.488;2023-06-22T09:33:29;11.73;;;6.47;;
1376;SDS011;682;52.502;13.488;2023-06-22T09:35:57;4.80;;;4.33;;
1376;SDS011;682;52.502;13.488;2023-06-22T09:38:26;4.63;;;4.23;;
1376;SDS011;682;52.502;13.488;2023-06-22T09:40:55;6.10;;;4.23;;
1376;SDS011;682;52.502;13.488;2023-06-22T09:43:32;7.70;;;5.23;;
1376;SDS011;682;52.502;13.488;2023-06-22T09:46:01;4.70;;;4.30;;
1376;SDS011;682;52.502;13.488;2023-06-22T09:48:29;4.90;;;4.40;;
1376;SDS011;682;52.502;13.488;2023-06-22T09:50:56;4.97;;;4.57;;
1376;SDS011;682;52.502;13.488;2023-06-22T09:53:24;3.83;;;3.60;;
1376;SDS011;682;52.502;13.488;2023-06-22T09:55:51;4.57;;;4.20;;
1376;SDS011;682;52.502;13.488;2023-06-22T09:58:19;4.50;;;4.20;;
1376;SDS011;682;52.502;13.488;2023-06-22T10:00:46;5.40;;;5.00;;
1376;SDS011;682;52.502;13.488;2023-06-22T10:03:13;6.23;;;4.90;;
1376;SDS011;682;52.502;13.488;2023-06-22T10:05:42;4.97;;;4.47;;
1376;SDS011;682;52.502;13.488;2023-06-22T10:08:09;5.33;;;4.93;;
1376;SDS011;682;52.502;13.488;2023-06-22T10:10:38;4.80;;;4.40;;
1376;SDS011;682;52.502;13.488;2023-06-22T10:13:07;5.17;;;4.67;;
1376;SDS011;682;52.502;13.488;2023-06-22T10:15:36;5.07;;;4.67;;
1376;SDS011;682;52.502;13.488;2023-06-22T10:18:05;5.93;;;5.40;;
1376;SDS011;682;52.502;13.488;2023-06-22T10:20:33;5.50;;;4.30;;
1376;SDS011;682;52.502;13.488;2023-06-22T10:23:02;5.10;;;4.63;;
1376;SDS011;682;52.502;13.488;2023-06-22T10:25:29;5.03;;;4.63;;
1376;SDS011;682;52.502;13.488;2023-06-22T10:27:57;5.17;;;4.77;;
1376;SDS011;682;52.502;13.488;2023-06-22T10:30:24;4.93;;;4.57;;
1376;SDS011;682;52.502;13.488;2023-06-22T10:32:57;5.83;;;4.90;;
1376;SDS011;682;52.502;13.488;2023-06-22T10:35:30;6.57;;;5.37;;
1376;SDS011;682;52.502;13.488;2023-06-22T10:37:57;4.83;;;4.33;;
1376;SDS011;682;52.502;13.488;2023-06-22T10:40:26;4.77;;;4.23;;
1376;SDS011;682;52.502;13.488;2023-06-22T10:42:53;5.20;;;4.80;;
1376;SDS011;682;52.502;13.488;2023-06-22T10:45:22;4.20;;;3.90;;
1376;SDS011;682;52.502;13.488;2023-06-22T10:47:53;4.60;;;4.20;;
1376;SDS011;682;52.502;13.488;2023-06-22T10:50:22;5.40;;;4.70;;
1376;SDS011;682;52.502;13.488;2023-06-22T10:52:50;6.23;;;5.37;;
1376;SDS011;682;52.502;13.488;2023-06-22T10:55:18;4.80;;;4.40;;
1376;SDS011;682;52.502;13.488;2023-06-22T10:57:48;4.40;;;4.00;;
1376;SDS011;682;52.502;13.488;2023-06-22T11:00:18;3.97;;;3.67;;
1376;SDS011;682;52.502;13.488;2023-06-22T11:02:52;4.63;;;4.23;;
1376;SDS011;682;52.502;13.488;2023-06-22T11:05:25;6.37;;;5.20;;
1376;SDS011;682;52.502;13.488;2023-06-22T11:08:21;4.63;;;3.63;;
1376;SDS011;682;52.502;13.488;2023-06-22T11:10:51;4.77;;;4.37;;
1376;SDS011;682;52.502;13.488;2023-06-22T11:13:22;4.30;;;3.90;;
1376;SDS011;682;52.502;13.488;2023-06-22T11:15:50;4.47;;;4.07;;
1376;SDS011;682;52.502;13.488;2023-06-22T11:18:17;4.40;;;4.10;;
1376;SDS011;682;52.502;13.488;2023-06-22T11:20:48;4.43;;;4.13;;
1376;SDS011;682;52.502;13.488;2023-06-22T11:23:15;6.47;;;3.90;;
1376;SDS011;682;52.502;13.488;2023-06-22T11:25:44;4.30;;;3.90;;
1376;SDS011;682;52.502;13.488;2023-06-22T11:28:15;5.40;;;4.40;;
1376;SDS011;682;52.502;13.488;2023-06-22T11:30:46;4.67;;;4.27;;
1376;SDS011;682;52.502;13.488;2023-06-22T11:33:13;4.40;;;4.00;;
1376;SDS011;682;52.502;13.488;2023-06-22T11:35:40;5.67;;;5.13;;
1376;SDS011;682;52.502;13.488;2023-06-22T11:38:08;4.40;;;4.00;;
1376;SDS011;682;52.502;13.488;2023-06-22T11:40:35;7.07;;;6.40;;
1376;SDS011;682;52.502;13.488;2023-06-22T11:43:04;5.97;;;5.40;;
1376;SDS011;682;52.502;13.488;2023-06-22T11:45:31;4.33;;;3.93;;
1376;SDS011;682;52.502;13.488;2023-06-22T11:48:00;4.43;;;4.10;;
1376;SDS011;682;52.502;13.488;2023-06-22T11:50:27;6.30;;;5.70;;
1376;SDS011;682;52.502;13.488;2023-06-22T11:52:55;4.73;;;4.33;;
1376;SDS011;682;52.502;13.488;2023-06-22T11:55:22;4.33;;;3.93;;
1376;SDS011;682;52.502;13.488;2023-06-22T11:57:54;4.83;;;4.43;;
1376;SDS011;682;52.502;13.488;2023-06-22T12:00:23;4.27;;;3.87;;
1376;SDS011;682;52.502;13.488;2023-06-22T12:02:50;4.67;;;4.37;;
1376;SDS011;682;52.502;13.488;2023-06-22T12:05:22;4.97;;;4.67;;
1376;SDS011;682;52.502;13.488;2023-06-22T12:07:50;5.10;;;4.70;;
1376;SDS011;682;52.502;13.488;2023-06-22T12:10:21;5.03;;;4.73;;
1376;SDS011;682;52.502;13.488;2023-06-22T12:12:53;4.40;;;4.10;;
1376;SDS011;682;52.502;13.488;2023-06-22T12:15:20;5.30;;;4.80;;
1376;SDS011;682;52.502;13.488;2023-06-22T12:17:47;4.93;;;4.53;;
1376;SDS011;682;52.502;13.488;2023-06-22T12:20:17;5.33;;;4.90;;
1376;SDS011;682;52.502;13.488;2023-06-22T12:22:45;6.23;;;5.63;;
1376;SDS011;682;52.502;13.488;2023-06-22T12:25:12;5.00;;;4.50;;
1376;SDS011;682;52.502;13.488;2023-06-22T12:27:40;5.10;;;4.70;;
1376;SDS011;682;52.502;13.488;2023-06-22T12:30:10;5.33;;;4.93;;
1376;SDS011;682;52.502;13.488;2023-06-22T12:32:37;5.93;;;5.33;;
1376;SDS011;682;52.502;13.488;2023-06-22T12:35:06;5.20;;;4.77;;
1376;SDS011;682;52.502;13.488;2023-06-22T12:37:38;5.23;;;4.73;;
1376;SDS011;682;52.502;13.488;2023-06-22T12:40:11;5.30;;;4.90;;
1376;SDS011;682;52.502;13.488;2023-06-22T12:42:39;5.10;;;4.70;;
1376;SDS011;682;52.502;13.488;2023-06-22T12:45:08;5.00;;;4.53;;
1376;SDS011;682;52.502;13.488;2023-06-22T12:47:35;5.63;;;5.23;;
1376;SDS011;682;52.502;13.488;2023-06-22T12:50:04;4.87;;;4.57;;
1376;SDS011;682;52.502;13.488;2023-06-22T12:52:33;6.10;;;5.47;;
1376;SDS011;682;52.502;13.488;2023-06-22T12:55:04;5.57;;;5.17;;
1376;SDS011;682;52.502;13.488;2023-06-22T12:57:33;5.17;;;4.77;;
1376;SDS011;682;52.502;13.488;2023-06-22T13:00:01;5.53;;;5.13;;
1376;SDS011;682;52.502;13.488;2023-06-22T13:02:30;5.73;;;5.27;;
1376;SDS011;682;52.502;13.488;2023-06-22T13:04:57;6.60;;;5.30;;
1376;SDS011;682;52.502;13.488;2023-06-22T13:07:24;5.20;;;4.80;;
1376;SDS011;682;52.502;13.488;2023-06-22T13:09:52;5.20;;;4.80;;
1376;SDS011;682;52.502;13.488;2023-06-22T13:12:19;5.03;;;4.63;;
1376;SDS011;682;52.502;13.488;2023-06-22T13:14:48;5.73;;;5.27;;
1376;SDS011;682;52.502;13.488;2023-06-22T13:17:17;5.50;;;5.10;;
1376;SDS011;682;52.502;13.488;2023-06-22T13:19:44;5.40;;;5.00;;
1376;SDS011;682;52.502;13.488;2023-06-22T13:22:25;7.37;;;5.50;;
1376;SDS011;682;52.502;13.488;2023-06-22T13:24:56;4.93;;;4.57;;
1376;SDS011;682;52.502;13.488;2023-06-22T13:27:27;6.03;;;5.50;;
1376;SDS011;682;52.502;13.488;2023-06-22T13:29:55;5.27;;;4.87;;
1376;SDS011;682;52.502;13.488;2023-06-22T13:32:24;6.90;;;5.73;;
1376;SDS011;682;52.502;13.488;2023-06-22T13:34:52;5.30;;;4.90;;
1376;SDS011;682;52.502;13.488;2023-06-22T13:37:20;5.47;;;5.07;;
1376;SDS011;682;52.502;13.488;2023-06-22T13:39:47;5.03;;;4.63;;
1376;SDS011;682;52.502;13.488;2023-06-22T13:42:15;5.27;;;4.97;;
1376;SDS011;682;52.502;13.488;2023-06-22T13:44:42;5.67;;;5.37;;
1376;SDS011;682;52.502;13.488;2023-06-22T13:47:10;8.40;;;7.67;;
1376;SDS011;682;52.502;13.488;2023-06-22T13:49:37;5.60;;;5.20;;
1376;SDS011;682;52.502;13.488;2023-06-22T13:52:05;5.10;;;4.80;;
1376;SDS011;682;52.502;13.488;2023-06-22T13:54:35;5.30;;;4.80;;
1376;SDS011;682;52.502;13.488;2023-06-22T13:57:02;5.73;;;5.03;;
1376;SDS011;682;52.502;13.488;2023-06-22T13:59:33;5.70;;;5.10;;
1376;SDS011;682;52.502;13.488;2023-06-22T14:02:03;5.23;;;4.93;;
1376;SDS011;682;52.502;13.488;2023-06-22T14:04:34;5.97;;;5.57;;
1376;SDS011;682;52.502;13.488;2023-06-22T14:07:01;5.47;;;5.07;;
1376;SDS011;682;52.502;13.488;2023-06-22T14:09:29;6.00;;;5.60;;
1376;SDS011;682;52.502;13.488;2023-06-22T14:11:57;10.83;;;6.83;;
1376;SDS011;682;52.502;13.488;2023-06-22T14:14:36;5.03;;;4.63;;
1376;SDS011;682;52.502;13.488;2023-06-22T14:17:04;5.23;;;4.83;;
1376;SDS011;682;52.502;13.488;2023-06-22T14:19:35;5.60;;;5.20;;
1376;SDS011;682;52.502;13.488;2023-06-22T14:22:02;5.33;;;5.03;;
1376;SDS011;682;52.502;13.488;2023-06-22T14:24:30;6.47;;;5.87;;
1376;SDS011;682;52.502;13.488;2023-06-22T14:26:58;6.13;;;5.60;;
1376;SDS011;682;52.502;13.488;2023-06-22T14:29:27;5.67;;;5.27;;
1376;SDS011;682;52.502;13.488;2023-06-22T14:31:59;6.50;;;5.90;;
1376;SDS011;682;52.502;13.488;2023-06-22T14:34:27;5.37;;;4.97;;
1376;SDS011;682;52.502;13.488;2023-06-22T14:36:57;5.50;;;5.10;;
1376;SDS011;682;52.502;13.488;2023-06-22T14:39:25;4.97;;;4.47;;
1376;SDS011;682;52.502;13.488;2023-06-22T14:41:53;5.70;;;5.30;;
1376;SDS011;682;52.502;13.488;2023-06-22T14:44:20;5.47;;;5.07;;
1376;SDS011;682;52.502;13.488;2023-06-22T14:46:48;5.50;;;5.10;;
1376;SDS011;682;52.502;13.488;2023-06-22T14:49:17;4.70;;;4.30;;
1376;SDS011;682;52.502;13.488;2023-06-22T14:51:44;5.67;;;5.23;;
1376;SDS011;682;52.502;13.488;2023-06-22T14:54:13;5.87;;;5.30;;
1376;SDS011;682;52.502;13.488;2023-06-22T14:56:43;5.40;;;5.00;;
1376;SDS011;682;52.502;13.488;2023-06-22T14:59:10;5.60;;;5.20;;
1376;SDS011;682;52.502;13.488;2023-06-22T15:01:42;5.33;;;4.93;;
1376;SDS011;682;52.502;13.488;2023-06-22T15:04:09;6.10;;;5.60;;
1376;SDS011;682;52.502;13.488;2023-06-22T15:06:38;5.70;;;5.20;;
1376;SDS011;682;52.502;13.488;2023-06-22T15:09:05;7.80;;;7.13;;
1376;SDS011;682;52.502;13.488;2023-06-22T15:11:35;4.93;;;4.63;;
1376;SDS011;682;52.502;13.488;2023-06-22T15:14:02;5.33;;;4.93;;
1376;SDS011;682;52.502;13.488;2023-06-22T15:16:29;5.70;;;5.30;;
1376;SDS011;682;52.502;13.488;2023-06-22T15:18:56;15.47;;;14.47;;